Tokio, Japonia

07:17 AM JST on septembrie 02, 2015 (GMT +0900)
Tokyo (Haneda) International | | Change Station
CLOSE
Current Station
Aeroport
Location: Tokyo,
Elevation: 26 ft
Nearby Weather Stations

Elev 26 ft 35.55 °N, 139.78 °E | Updated 17 minutes ago

Rain
Ploaie
79 °F
Feels Like 79 °F
N
20
Vânt variabil Vânt from SSV
Gusts 32 mph

astăzi
High -- | Low -- °F
--% Chance of Precip.
Ieri
High -- | Low -- °F
Precip. -- inch
5:13 AM 6:07 PM
Lună în descreştere, 86% visible
Presiunea 29.86 inch
Vizibilitatea 4.3 mile
Nori Few 1000 ft
Nori risipiţi 1500 ft
Cer în general noros 2000 ft
Punctul de rouă 77 °F
Umiditatea 94%
Precipitaţii 0.00 inch
Adâncimea zăpezii Not available.
UV 1 out of 12
Pollen Not available.
Calitatea aerului Not available.
Flu Activity Not available.
METAR RJTT 012200Z 21017G28KT 7000 RA FEW010 SCT015 BKN020 26/25 Q1011 TEMPO 3000 TSRA FEW005 BKN008 FEW020CB RMK 1CU010 4CU015 6CU020 A2986
Presiunea 29.86 inch
Vizibilitatea 4.3 mile
Nori Few 1000 ft
Nori risipiţi 1500 ft
Cer în general noros 2000 ft
Punctul de rouă 77 °F
Umiditatea 94%
Precipitaţii 0.00 inch
Adâncimea zăpezii Not available.
UV 1 out of 12
Pollen Not available.
Calitatea aerului Not available.
Flu Activity Not available.
METAR RJTT 012200Z 21017G28KT 7000 RA FEW010 SCT015 BKN020 26/25 Q1011 TEMPO 3000 TSRA FEW005 BKN008 FEW020CB RMK 1CU010 4CU015 6CU020 A2986

10-Day Weather Forecast

×

Almanac

Astronomie

Sep. 02, 2015 Răsărit Apus
Timpul Actual
Crepusculul Civil
Crepusculul nautic
Răsărit Astronomic
Luna
Durata zilei lumină
Lungimea zilei
Tomorrow will be .
, % of the Moon is Illuminated

Extremele de azi

Country Highs Country Lows

Community

WunderPhotos

Upload Photos

1,851,632 photos uploaded!

WunderBlogs® & News

Nearby

Calitatea aerului

  Calitatea aerului Index de calitate a aerului Poluat
Not available.

Adâncimea zapezii

Station Depth Elevation

Earthquake Activity

Oraş Distance Mag. Time & Date
Minimum magnitude displayed is 2.5.

Coastal Water Temperatures

Locul Temperatura

Stations

Nearby Weather Stations

Locaţia staţiei Temp Vânt rece Punctul de rouă Umiditatea Vânt Precip. Elev Actualizare Type